createdAt,value
2022-09-25T00:02:21.039Z,8.65
2022-09-25T00:04:48.660Z,12.80
2022-09-25T00:07:16.045Z,9.77
2022-09-25T00:09:43.390Z,9.38
2022-09-25T00:12:10.969Z,9.43
2022-09-25T00:14:38.286Z,10.95
2022-09-25T00:17:05.655Z,10.23
2022-09-25T00:19:51.542Z,9.43
2022-09-25T00:22:19.567Z,8.48
2022-09-25T00:24:47.564Z,10.30
2022-09-25T00:27:15.336Z,7.35
2022-09-25T00:29:42.745Z,14.32
2022-09-25T00:32:11.305Z,11.40
2022-09-25T00:34:38.801Z,7.93
2022-09-25T00:37:06.375Z,10.40
2022-09-25T00:39:34.047Z,8.98
2022-09-25T00:42:01.396Z,10.27
2022-09-25T00:44:56.861Z,10.20
2022-09-25T00:47:49.282Z,9.98
2022-09-25T00:50:26.935Z,10.90
2022-09-25T00:52:55.429Z,8.50
2022-09-25T00:55:23.963Z,8.90
2022-09-25T00:57:53.240Z,10.00
2022-09-25T01:00:20.837Z,10.63
2022-09-25T01:02:53.282Z,9.82
2022-09-25T01:05:24.513Z,8.95
2022-09-25T01:07:52.280Z,8.30
2022-09-25T01:10:20.379Z,9.88
2022-09-25T01:12:48.537Z,7.95
2022-09-25T01:15:17.664Z,7.80
2022-09-25T01:18:02.973Z,8.50
2022-09-25T01:20:41.079Z,10.80
2022-09-25T01:23:20.807Z,9.02
2022-09-25T01:25:55.398Z,10.48
2022-09-25T01:28:29.445Z,7.35
2022-09-25T01:31:03.881Z,9.70
2022-09-25T01:33:35.708Z,12.60
2022-09-25T01:36:06.970Z,9.07
2022-09-25T01:38:42.952Z,11.12
2022-09-25T01:41:27.504Z,10.43
2022-09-25T01:44:10.149Z,11.57
2022-09-25T01:46:44.126Z,10.85
2022-09-25T01:49:22.902Z,12.85
2022-09-25T01:51:52.534Z,12.00
2022-09-25T01:54:32.948Z,8.65
2022-09-25T01:57:22.561Z,10.18
2022-09-25T01:59:56.993Z,9.52
2022-09-25T02:02:30.266Z,11.68
2022-09-25T02:05:02.798Z,9.23
2022-09-25T02:07:34.250Z,10.43
2022-09-25T02:10:14.338Z,9.40
2022-09-25T02:12:47.364Z,8.82
2022-09-25T02:15:35.518Z,10.48
2022-09-25T02:18:26.156Z,8.38
2022-09-25T02:21:00.047Z,8.18
2022-09-25T02:23:32.775Z,8.68
2022-09-25T02:26:09.618Z,15.23
2022-09-25T02:28:36.998Z,20.67
2022-09-25T02:31:08.388Z,17.62
2022-09-25T02:33:35.925Z,24.98
2022-09-25T02:36:03.801Z,28.23
2022-09-25T02:38:33.539Z,69.40
2022-09-25T02:41:03.703Z,98.28
2022-09-25T02:43:46.201Z,31.10
2022-09-25T02:46:19.447Z,28.15
2022-09-25T02:48:53.070Z,43.87
2022-09-25T02:51:34.482Z,56.13
2022-09-25T02:54:05.187Z,111.82
2022-09-25T02:56:35.151Z,75.85
2022-09-25T02:59:06.877Z,77.00
2022-09-25T03:01:35.262Z,47.13
2022-09-25T03:04:03.528Z,34.63
2022-09-25T03:06:31.102Z,26.65
2022-09-25T03:08:58.605Z,20.62
2022-09-25T03:11:28.961Z,21.20
2022-09-25T03:14:00.606Z,17.77
2022-09-25T03:16:49.140Z,18.77
2022-09-25T03:19:16.577Z,28.42
2022-09-25T03:21:44.174Z,24.60
2022-09-25T03:24:11.528Z,22.52
2022-09-25T03:26:40.554Z,24.63
2022-09-25T03:29:08.281Z,22.77
2022-09-25T03:31:35.748Z,22.62
2022-09-25T03:34:03.130Z,22.05
2022-09-25T03:36:30.926Z,21.25
2022-09-25T03:38:59.142Z,22.10
2022-09-25T03:41:28.890Z,21.02
2022-09-25T03:43:56.779Z,22.02
2022-09-25T03:46:26.758Z,21.50
2022-09-25T03:48:54.238Z,22.92
2022-09-25T03:51:22.009Z,23.90
2022-09-25T03:53:50.059Z,27.17
2022-09-25T03:56:20.293Z,17.92
2022-09-25T03:58:48.285Z,16.75
2022-09-25T04:01:15.923Z,18.90
2022-09-25T04:03:47.044Z,14.32
2022-09-25T04:06:18.440Z,13.80
2022-09-25T04:08:46.516Z,19.35
2022-09-25T04:11:15.139Z,15.00
2022-09-25T04:13:44.056Z,15.07
2022-09-25T04:16:12.079Z,16.62
2022-09-25T04:18:41.816Z,13.73
2022-09-25T04:21:10.069Z,14.73
2022-09-25T04:23:37.733Z,13.00
2022-09-25T04:26:05.260Z,13.50
2022-09-25T04:28:33.082Z,14.05
2022-09-25T04:31:00.840Z,14.55
2022-09-25T04:33:46.443Z,14.85
2022-09-25T04:36:19.181Z,12.18
2022-09-25T04:38:48.118Z,13.73
2022-09-25T04:41:16.598Z,11.82
2022-09-25T04:43:43.957Z,12.60
2022-09-25T04:46:16.727Z,13.93
2022-09-25T04:48:47.878Z,13.57
2022-09-25T04:51:15.247Z,13.80
2022-09-25T04:53:43.104Z,20.00
2022-09-25T04:56:15.914Z,13.95
2022-09-25T04:58:45.952Z,15.20
2022-09-25T05:01:13.625Z,15.48
2022-09-25T05:03:41.072Z,20.40
2022-09-25T05:06:08.486Z,23.38
2022-09-25T05:08:36.059Z,20.90
2022-09-25T05:11:03.913Z,24.25
2022-09-25T05:13:31.403Z,26.80
2022-09-25T05:15:59.057Z,24.40
2022-09-25T05:18:26.761Z,19.52
2022-09-25T05:20:54.339Z,20.58
2022-09-25T05:23:22.086Z,16.02
2022-09-25T05:26:02.262Z,20.58
2022-09-25T05:28:31.020Z,19.62
2022-09-25T05:31:04.613Z,20.08
2022-09-25T05:33:32.699Z,18.85
2022-09-25T05:36:04.498Z,15.93
2022-09-25T05:38:32.491Z,19.23
2022-09-25T05:41:05.001Z,12.98
2022-09-25T05:43:32.796Z,15.43
2022-09-25T05:46:00.370Z,13.25
2022-09-25T05:48:27.847Z,15.18
2022-09-25T05:50:56.388Z,14.18
2022-09-25T05:53:23.924Z,13.50
2022-09-25T05:55:55.685Z,14.65
2022-09-25T05:58:23.287Z,15.13
2022-09-25T06:00:50.840Z,13.80
2022-09-25T06:03:18.670Z,13.65
2022-09-25T06:05:46.285Z,14.93
2022-09-25T06:08:13.834Z,12.70
2022-09-25T06:10:41.706Z,14.85
2022-09-25T06:13:09.025Z,20.20
2022-09-25T06:15:37.718Z,15.30
2022-09-25T06:18:05.772Z,17.52
2022-09-25T06:20:33.167Z,20.08
2022-09-25T06:23:03.671Z,16.67
2022-09-25T06:25:32.598Z,22.37
2022-09-25T06:28:00.649Z,13.93
2022-09-25T06:30:34.421Z,21.83
2022-09-25T06:33:10.748Z,13.43
2022-09-25T06:35:41.750Z,16.50
2022-09-25T06:38:09.597Z,15.00
2022-09-25T06:40:38.801Z,18.02
2022-09-25T06:43:07.795Z,15.23
2022-09-25T06:45:35.670Z,16.83
2022-09-25T06:48:13.319Z,16.23
2022-09-25T06:50:44.596Z,14.60
2022-09-25T06:53:12.060Z,10.82
2022-09-25T06:55:39.466Z,15.23
2022-09-25T06:58:08.398Z,15.55
2022-09-25T07:00:35.748Z,16.42
2022-09-25T07:03:21.745Z,14.23
2022-09-25T07:08:17.576Z,16.00
2022-09-25T07:10:51.961Z,16.75
2022-09-25T07:13:24.396Z,14.63
2022-09-25T07:15:56.346Z,17.23
2022-09-25T07:18:24.503Z,16.37
2022-09-25T07:20:52.891Z,13.75
2022-09-25T07:23:21.078Z,13.62
2022-09-25T07:25:49.530Z,18.48
2022-09-25T07:28:18.998Z,14.63
2022-09-25T07:30:46.701Z,12.57
2022-09-25T07:33:14.462Z,12.40
2022-09-25T07:35:41.796Z,17.87
2022-09-25T07:38:09.112Z,11.88
2022-09-25T07:40:36.755Z,11.35
2022-09-25T07:43:04.597Z,11.15
2022-09-25T07:45:32.325Z,10.10
2022-09-25T07:48:01.597Z,7.93
2022-09-25T07:50:29.563Z,8.13
2022-09-25T07:52:57.069Z,6.53
2022-09-25T07:55:24.750Z,9.10
2022-09-25T07:57:53.350Z,5.90
2022-09-25T08:00:20.688Z,6.87
2022-09-25T08:02:55.740Z,8.13
2022-09-25T08:05:23.163Z,7.32
2022-09-25T08:07:50.746Z,6.85
2022-09-25T08:10:18.841Z,7.78
2022-09-25T08:12:46.185Z,5.62
2022-09-25T08:15:16.917Z,6.25
2022-09-25T08:17:44.272Z,10.73
2022-09-25T08:20:11.581Z,9.43
2022-09-25T08:22:39.202Z,7.72
2022-09-25T08:25:06.936Z,6.25
2022-09-25T08:27:39.648Z,5.85
2022-09-25T08:30:09.042Z,7.03
2022-09-25T08:32:36.567Z,9.25
2022-09-25T08:35:04.472Z,6.18
2022-09-25T08:37:32.313Z,5.82
2022-09-25T08:39:59.905Z,5.70
2022-09-25T08:42:33.116Z,5.78
2022-09-25T08:45:22.423Z,6.62
2022-09-25T08:48:10.192Z,5.72
2022-09-25T08:50:37.894Z,5.22
2022-09-25T08:53:15.861Z,3.87
2022-09-25T08:56:02.069Z,7.78
2022-09-25T08:58:34.311Z,8.48
2022-09-25T09:01:04.204Z,4.62
2022-09-25T09:03:32.131Z,5.05
2022-09-25T09:06:02.774Z,6.05
2022-09-25T09:08:31.383Z,7.37
2022-09-25T09:11:13.606Z,17.60
2022-09-25T09:13:58.278Z,5.18
2022-09-25T09:16:47.010Z,4.53
2022-09-25T09:19:14.600Z,3.25
2022-09-25T09:21:47.391Z,4.85
2022-09-25T09:24:37.086Z,3.92
2022-09-25T09:27:23.120Z,7.95
2022-09-25T09:30:15.501Z,8.10
2022-09-25T09:33:01.442Z,8.40
2022-09-25T09:35:42.535Z,7.37
2022-09-25T09:38:44.247Z,5.22
2022-09-25T09:41:44.027Z,7.03
2022-09-25T09:44:40.021Z,6.05
2022-09-25T09:47:39.508Z,8.20
2022-09-25T09:50:43.906Z,10.50
2022-09-25T09:53:34.277Z,3.50
2022-09-25T09:56:14.822Z,7.43
2022-09-25T09:58:57.137Z,5.90
2022-09-25T10:01:40.978Z,5.65
2022-09-25T10:04:24.722Z,7.10
2022-09-25T10:06:55.505Z,6.47
2022-09-25T10:09:25.917Z,7.10
2022-09-25T10:12:07.485Z,4.97
2022-09-25T10:14:38.606Z,7.43
2022-09-25T10:17:05.907Z,4.20
2022-09-25T10:20:03.494Z,7.18
2022-09-25T10:22:37.428Z,9.30
2022-09-25T10:25:06.516Z,5.93
2022-09-25T10:27:41.330Z,6.68
2022-09-25T10:30:11.674Z,7.40
2022-09-25T10:32:43.306Z,8.25
2022-09-25T10:35:19.201Z,6.55
2022-09-25T10:37:54.638Z,7.50
2022-09-25T10:40:28.153Z,5.10
2022-09-25T10:43:24.231Z,5.85
2022-09-25T10:46:12.934Z,8.35
2022-09-25T10:48:59.315Z,8.50
2022-09-25T10:51:26.674Z,7.80
2022-09-25T10:54:13.281Z,7.62
2022-09-25T10:56:40.648Z,6.47
2022-09-25T10:59:19.518Z,8.85
2022-09-25T11:01:47.712Z,6.78
2022-09-25T11:04:21.614Z,6.62
2022-09-25T11:06:52.333Z,6.40
2022-09-25T11:09:22.262Z,5.68
2022-09-25T11:11:50.161Z,6.62
2022-09-25T11:14:45.368Z,7.57
2022-09-25T11:17:32.554Z,4.28
2022-09-25T11:20:31.659Z,5.15
2022-09-25T11:23:24.681Z,4.35
2022-09-25T11:26:16.634Z,3.87
2022-09-25T11:29:07.458Z,4.12
2022-09-25T11:31:43.565Z,5.55
2022-09-25T11:37:30.963Z,3.75
2022-09-25T11:40:29.796Z,5.32
2022-09-25T11:43:14.465Z,3.12
2022-09-25T11:45:51.578Z,5.93
2022-09-25T11:48:51.466Z,11.25
2022-09-25T11:51:39.240Z,2.87
2022-09-25T11:54:45.151Z,5.82
2022-09-25T11:57:18.316Z,4.68
2022-09-25T12:00:06.928Z,4.43
2022-09-25T12:03:01.044Z,4.78
2022-09-25T12:05:49.269Z,6.57
2022-09-25T12:08:38.706Z,5.28
2022-09-25T12:11:45.827Z,4.43
2022-09-25T12:14:17.221Z,7.55
2022-09-25T12:17:00.509Z,5.10
2022-09-25T12:19:52.114Z,6.10
2022-09-25T12:22:39.743Z,7.55
2022-09-25T12:25:48.047Z,7.28
2022-09-25T12:28:37.149Z,6.30
2022-09-25T12:31:23.611Z,6.10
2022-09-25T12:36:42.723Z,5.12
2022-09-25T12:39:20.207Z,6.00
2022-09-25T12:41:55.741Z,5.60
2022-09-25T12:44:50.336Z,6.35
2022-09-25T12:47:37.570Z,9.98
2022-09-25T12:50:14.990Z,8.38
2022-09-25T12:53:05.674Z,7.85
2022-09-25T12:55:41.058Z,8.13
2022-09-25T12:58:23.113Z,8.15
2022-09-25T13:00:56.135Z,10.15
2022-09-25T13:03:46.245Z,8.60
2022-09-25T13:06:25.420Z,5.10
2022-09-25T13:08:57.939Z,5.10
2022-09-25T13:12:02.810Z,6.80
2022-09-25T13:14:34.684Z,13.35
2022-09-25T13:17:02.507Z,8.60
2022-09-25T13:19:33.266Z,12.32
2022-09-25T13:22:24.915Z,10.30
2022-09-25T13:25:02.326Z,10.57
2022-09-25T13:27:37.395Z,9.95
2022-09-25T13:30:05.768Z,11.77
2022-09-25T13:32:35.962Z,9.02
2022-09-25T13:35:06.093Z,8.15
2022-09-25T13:37:36.102Z,9.45
2022-09-25T13:40:35.979Z,8.68
2022-09-25T13:43:24.335Z,8.20
2022-09-25T13:46:15.073Z,8.15
2022-09-25T13:48:42.848Z,9.77
2022-09-25T13:51:18.031Z,8.65
2022-09-25T13:54:03.784Z,8.32
2022-09-25T13:56:34.269Z,13.77
2022-09-25T13:59:20.363Z,14.90
2022-09-25T14:01:57.708Z,14.02
2022-09-25T14:04:34.071Z,9.52
2022-09-25T14:07:13.449Z,11.02
2022-09-25T14:09:46.403Z,9.13
2022-09-25T14:12:23.538Z,9.02
2022-09-25T14:14:56.002Z,7.43
2022-09-25T14:17:24.926Z,8.30
2022-09-25T14:19:54.131Z,7.18
2022-09-25T14:22:46.113Z,10.38
2022-09-25T14:25:40.627Z,12.20
2022-09-25T14:28:25.600Z,9.95
2022-09-25T14:31:23.932Z,7.60
2022-09-25T14:34:04.448Z,8.38
2022-09-25T14:36:37.163Z,8.88
2022-09-25T14:39:19.749Z,9.57
2022-09-25T14:42:06.430Z,12.13
2022-09-25T14:45:06.337Z,8.27
2022-09-25T14:47:38.844Z,8.50
2022-09-25T14:50:06.322Z,13.52
2022-09-25T14:52:35.046Z,11.98
2022-09-25T14:55:02.387Z,10.90
2022-09-25T14:57:37.170Z,17.15
2022-09-25T15:00:07.035Z,18.20
2022-09-25T15:02:38.047Z,15.45
2022-09-25T15:05:34.283Z,11.90
2022-09-25T15:08:02.840Z,11.52
2022-09-25T15:10:34.399Z,12.23
2022-09-25T15:13:14.063Z,13.23
2022-09-25T15:16:01.964Z,16.15
2022-09-25T15:18:29.375Z,13.75
2022-09-25T15:20:56.965Z,13.70
2022-09-25T15:23:24.325Z,12.15
2022-09-25T15:25:53.999Z,10.80
2022-09-25T15:28:24.545Z,14.90
2022-09-25T15:31:00.472Z,14.52
2022-09-25T15:33:29.913Z,16.65
2022-09-25T15:35:58.772Z,19.45
2022-09-25T15:38:34.200Z,16.25
2022-09-25T15:41:01.990Z,19.62
2022-09-25T15:43:32.289Z,16.80
2022-09-25T15:46:09.174Z,15.63
2022-09-25T15:48:40.544Z,17.65
2022-09-25T15:51:21.412Z,15.55
2022-09-25T15:53:59.071Z,19.90
2022-09-25T15:56:27.928Z,23.87
2022-09-25T15:59:18.428Z,26.30
2022-09-25T16:02:04.457Z,26.95
2022-09-25T16:04:47.224Z,27.13
2022-09-25T16:07:36.556Z,30.88
2022-09-25T16:10:12.168Z,30.42
2022-09-25T16:12:42.464Z,29.12
2022-09-25T16:15:26.626Z,28.70
2022-09-25T16:18:02.845Z,19.90
2022-09-25T16:20:34.533Z,19.50
2022-09-25T16:23:04.506Z,16.73
2022-09-25T16:25:42.468Z,17.08
2022-09-25T16:28:27.889Z,17.05
2022-09-25T16:31:04.579Z,16.85
2022-09-25T16:33:40.080Z,16.25
2022-09-25T16:36:17.543Z,17.80
2022-09-25T16:39:11.111Z,18.90
2022-09-25T16:41:40.297Z,18.83
2022-09-25T16:44:15.147Z,16.62
2022-09-25T16:46:43.487Z,17.40
2022-09-25T16:49:12.269Z,16.83
2022-09-25T16:51:45.889Z,16.25
2022-09-25T16:54:15.107Z,20.12
2022-09-25T16:56:43.079Z,26.83
2022-09-25T16:59:17.399Z,24.80
2022-09-25T17:01:45.868Z,20.08
2022-09-25T17:04:14.138Z,22.65
2022-09-25T17:06:44.382Z,22.37
2022-09-25T17:09:12.737Z,18.12
2022-09-25T17:11:40.630Z,20.08
2022-09-25T17:14:08.589Z,19.45
2022-09-25T17:16:36.226Z,18.98
2022-09-25T17:19:08.440Z,16.35
2022-09-25T17:21:36.025Z,16.23
2022-09-25T17:24:03.406Z,13.90
2022-09-25T17:26:30.857Z,13.55
2022-09-25T17:28:58.493Z,13.50
2022-09-25T17:31:25.985Z,12.35
2022-09-25T17:33:53.369Z,14.02
2022-09-25T17:36:21.096Z,11.95
2022-09-25T17:38:48.453Z,11.48
2022-09-25T17:41:18.224Z,12.48
2022-09-25T17:43:45.906Z,12.20
2022-09-25T17:46:16.163Z,10.98
2022-09-25T17:48:43.754Z,10.48
2022-09-25T17:51:18.013Z,9.45
2022-09-25T17:53:46.476Z,11.38
2022-09-25T17:56:14.045Z,14.15
2022-09-25T17:58:43.230Z,13.98
2022-09-25T18:01:24.609Z,13.27
2022-09-25T18:03:53.432Z,17.73
2022-09-25T18:06:20.767Z,16.80
2022-09-25T18:08:48.424Z,17.35
2022-09-25T18:11:16.196Z,17.45
2022-09-25T18:13:43.944Z,20.67
2022-09-25T18:16:22.054Z,22.73
2022-09-25T18:19:08.520Z,17.25
2022-09-25T18:24:21.850Z,16.12
2022-09-25T18:26:50.197Z,21.52
2022-09-25T18:29:18.192Z,22.02
2022-09-25T18:31:46.549Z,25.37
2022-09-25T18:34:14.667Z,19.92
2022-09-25T18:36:42.359Z,19.23
2022-09-25T18:39:10.040Z,24.20
2022-09-25T18:41:37.908Z,19.83
2022-09-25T18:44:08.732Z,16.40
2022-09-25T18:46:38.254Z,17.58
2022-09-25T18:49:06.403Z,17.30
2022-09-25T18:51:33.869Z,16.98
2022-09-25T18:54:01.727Z,17.60
2022-09-25T18:56:29.838Z,16.98
2022-09-25T18:58:57.159Z,15.82
2022-09-25T19:01:25.204Z,14.45
2022-09-25T19:03:53.676Z,17.50
2022-09-25T19:06:21.138Z,16.70
2022-09-25T19:08:56.752Z,16.42
2022-09-25T19:11:24.755Z,20.67
2022-09-25T19:13:52.918Z,15.30
2022-09-25T19:16:20.568Z,20.88
2022-09-25T19:18:50.390Z,14.30
2022-09-25T19:21:21.192Z,20.92
2022-09-25T19:23:50.468Z,16.12
2022-09-25T19:26:20.940Z,13.65
2022-09-25T19:28:48.390Z,22.15
2022-09-25T19:31:17.735Z,21.05
2022-09-25T19:33:45.450Z,14.13
2022-09-25T19:36:26.613Z,18.73
2022-09-25T19:38:55.216Z,19.23
2022-09-25T19:41:30.556Z,17.52
2022-09-25T19:43:59.446Z,16.37
2022-09-25T19:46:28.798Z,19.48
2022-09-25T19:48:56.156Z,16.33
2022-09-25T19:51:24.221Z,15.48
2022-09-25T19:53:51.961Z,18.15
2022-09-25T19:56:19.637Z,13.32
2022-09-25T19:58:49.624Z,17.73
2022-09-25T20:01:19.001Z,18.77
2022-09-25T20:03:46.593Z,15.43
2022-09-25T20:06:16.034Z,18.23
2022-09-25T20:08:43.628Z,17.70
2022-09-25T20:11:22.024Z,15.50
2022-09-25T20:13:50.803Z,15.15
2022-09-25T20:16:19.933Z,14.87
2022-09-25T20:18:50.740Z,17.70
2022-09-25T20:21:21.234Z,17.33
2022-09-25T20:23:52.604Z,15.57
2022-09-25T20:26:20.651Z,15.02
2022-09-25T20:28:52.666Z,16.98
2022-09-25T20:31:20.517Z,15.27
2022-09-25T20:33:47.938Z,16.60
2022-09-25T20:36:15.613Z,17.77
2022-09-25T20:38:43.298Z,13.30
2022-09-25T20:41:11.757Z,14.05
2022-09-25T20:43:39.463Z,16.65
2022-09-25T20:46:09.244Z,15.73
2022-09-25T20:48:37.890Z,20.25
2022-09-25T20:51:09.673Z,15.82
2022-09-25T20:53:37.597Z,15.43
2022-09-25T20:56:12.517Z,15.15
2022-09-25T20:58:41.106Z,17.10
2022-09-25T21:01:10.174Z,14.80
2022-09-25T21:03:38.588Z,17.12
2022-09-25T21:06:08.134Z,17.23
2022-09-25T21:08:35.637Z,17.05
2022-09-25T21:11:03.030Z,14.15
2022-09-25T21:13:31.709Z,13.73
2022-09-25T21:16:06.251Z,17.00
2022-09-25T21:18:35.694Z,15.57
2022-09-25T21:21:04.414Z,14.18
2022-09-25T21:23:31.873Z,14.07
2022-09-25T21:26:04.438Z,15.93
2022-09-25T21:28:32.487Z,14.93
2022-09-25T21:31:13.929Z,12.70
2022-09-25T21:33:41.391Z,15.63
2022-09-25T21:36:10.026Z,16.15
2022-09-25T21:38:37.372Z,16.58
2022-09-25T21:41:06.620Z,14.85
2022-09-25T21:43:38.298Z,16.33
2022-09-25T21:46:16.451Z,17.27
2022-09-25T21:48:48.825Z,17.98
2022-09-25T21:51:16.326Z,15.48
2022-09-25T21:53:44.074Z,17.25
2022-09-25T21:56:14.340Z,19.27
2022-09-25T21:58:41.725Z,18.23
2022-09-25T22:01:12.294Z,16.83
2022-09-25T22:03:41.484Z,19.70
2022-09-25T22:06:10.893Z,18.60
2022-09-25T22:08:41.250Z,17.17
2022-09-25T22:11:09.098Z,21.83
2022-09-25T22:13:37.356Z,20.42
2022-09-25T22:16:10.907Z,19.95
2022-09-25T22:18:43.324Z,17.65
2022-09-25T22:21:11.860Z,17.42
2022-09-25T22:23:39.431Z,17.52
2022-09-25T22:26:06.795Z,20.75
2022-09-25T22:28:34.818Z,16.77
2022-09-25T22:31:12.514Z,19.15
2022-09-25T22:33:40.023Z,16.73
2022-09-25T22:36:08.312Z,18.55
2022-09-25T22:38:35.684Z,26.30
2022-09-25T22:41:07.784Z,18.90
2022-09-25T22:43:35.574Z,21.73
2022-09-25T22:46:03.164Z,21.25
2022-09-25T22:48:30.730Z,21.90
2022-09-25T22:51:03.792Z,23.92
2022-09-25T22:53:32.103Z,18.15
2022-09-25T22:56:21.065Z,27.00
2022-09-25T22:58:49.955Z,21.95
2022-09-25T23:01:23.224Z,20.12
2022-09-25T23:03:57.702Z,24.35
2022-09-25T23:06:25.980Z,21.42
2022-09-25T23:08:54.242Z,25.45
2022-09-25T23:11:22.002Z,26.48
2022-09-25T23:13:59.801Z,20.17
2022-09-25T23:16:27.475Z,21.65
2022-09-25T23:18:58.258Z,20.45
2022-09-25T23:21:26.033Z,18.42
2022-09-25T23:23:57.154Z,21.00
2022-09-25T23:26:24.760Z,18.15
2022-09-25T23:28:52.136Z,20.12
2022-09-25T23:31:19.709Z,18.42
2022-09-25T23:33:47.418Z,18.08
2022-09-25T23:36:17.591Z,21.92
2022-09-25T23:38:45.013Z,22.17
2022-09-25T23:41:20.072Z,20.98
2022-09-25T23:43:47.930Z,18.85
2022-09-25T23:46:16.083Z,17.70
2022-09-25T23:48:43.594Z,18.15
2022-09-25T23:51:11.354Z,17.27
2022-09-25T23:53:40.450Z,17.27
2022-09-25T23:56:09.502Z,15.13
2022-09-25T23:58:36.832Z,17.23
